Time;durP1;ratioP1;P1;durP2;ratioP2;P2;SDS_P1;SDS_P2;PMS_P1;PMS_P2;Temp;Humidity;BMP_temperature;BMP_pressure;BME280_temperature;BME280_humidity;BME280_pressure;Samples;Min_cycle;Max_cycle;Signal;HPM_P1;HPM_P2
2021/03/08 00:01:22;;;;;;;44.63;39.92;;;;;;;;;;4332347;33;20070;-78
2021/03/08 00:03:51;;;;;;;41.33;37.22;;;;;;;;;;4324942;33;20064;-79
2021/03/08 00:06:19;;;;;;;40.10;36.17;;;;;;;;;;4324748;33;20133;-80
2021/03/08 00:08:50;;;;;;;45.15;40.75;;;;;;;;;;4324767;33;20101;-78
2021/03/08 00:11:18;;;;;;;42.17;38.30;;;;;;;;;;4327659;33;20081;-79
2021/03/08 00:13:46;;;;;;;37.08;33.38;;;;;;;;;;4323377;33;20092;-78
2021/03/08 00:16:14;;;;;;;39.67;35.72;;;;;;;;;;4331720;33;20588;-80
2021/03/08 00:18:42;;;;;;;35.05;31.55;;;;;;;;;;4331150;33;20083;-80
2021/03/08 00:21:10;;;;;;;34.13;30.52;;;;;;;;;;4326905;33;20117;-80
2021/03/08 00:23:38;;;;;;;47.38;32.10;;;;;;;;;;4320910;33;20131;-77
2021/03/08 00:26:15;;;;;;;36.05;32.25;;;;;;;;;;4315907;33;20454;-78
2021/03/08 00:28:43;;;;;;;36.90;33.08;;;;;;;;;;4321554;33;20453;-77
2021/03/08 00:31:11;;;;;;;37.55;33.70;;;;;;;;;;4326338;33;20074;-79
2021/03/08 00:33:40;;;;;;;37.95;33.97;;;;;;;;;;4332143;33;20052;-79
2021/03/08 00:36:08;;;;;;;39.80;36.08;;;;;;;;;;4332400;33;20099;-77
2021/03/08 00:38:36;;;;;;;37.70;32.53;;;;;;;;;;4323158;33;20183;-79
2021/03/08 00:41:04;;;;;;;35.70;32.03;;;;;;;;;;4326846;33;21908;-79
2021/03/08 00:43:32;;;;;;;35.33;31.95;;;;;;;;;;4323865;33;20052;-79
2021/03/08 00:46:01;;;;;;;36.08;32.60;;;;;;;;;;4325047;33;20451;-79
2021/03/08 00:48:29;;;;;;;38.25;33.97;;;;;;;;;;4328870;32;20043;-77
2021/03/08 00:50:57;;;;;;;42.15;33.53;;;;;;;;;;4328907;33;20056;-78
2021/03/08 00:53:25;;;;;;;38.47;34.05;;;;;;;;;;4333313;33;20056;-78
2021/03/08 00:55:53;;;;;;;44.03;33.90;;;;;;;;;;4330255;33;20103;-80
2021/03/08 00:58:21;;;;;;;43.87;35.28;;;;;;;;;;4324938;33;20607;-77
2021/03/08 01:00:51;;;;;;;44.88;34.53;;;;;;;;;;4324772;33;20372;-76
2021/03/08 01:03:19;;;;;;;48.85;42.33;;;;;;;;;;4322474;33;20090;-77
2021/03/08 01:05:48;;;;;;;44.83;33.88;;;;;;;;;;4329114;33;20564;-79
2021/03/08 01:08:17;;;;;;;38.20;34.17;;;;;;;;;;4324282;33;20355;-80
2021/03/08 01:10:45;;;;;;;38.80;34.58;;;;;;;;;;4328910;33;20127;-79
2021/03/08 01:13:14;;;;;;;39.08;34.20;;;;;;;;;;4332034;33;20443;-78
2021/03/08 01:15:45;;;;;;;39.72;34.38;;;;;;;;;;4331750;33;20108;-79
2021/03/08 01:18:17;;;;;;;45.90;36.28;;;;;;;;;;4327568;33;20059;-80
2021/03/08 01:20:45;;;;;;;39.20;34.47;;;;;;;;;;4319641;33;20570;-78
2021/03/08 01:23:14;;;;;;;37.40;33.65;;;;;;;;;;4315068;33;21845;-80
2021/03/08 01:25:42;;;;;;;38.22;32.42;;;;;;;;;;4322655;33;20167;-79
2021/03/08 01:28:11;;;;;;;38.42;34.28;;;;;;;;;;4325966;33;20095;-79
2021/03/08 01:30:41;;;;;;;36.95;33.28;;;;;;;;;;4325663;33;20056;-81
2021/03/08 01:33:10;;;;;;;39.15;34.22;;;;;;;;;;4330322;33;20080;-80
2021/03/08 01:35:39;;;;;;;41.70;34.45;;;;;;;;;;4327559;33;20486;-80
2021/03/08 01:38:07;;;;;;;40.95;35.28;;;;;;;;;;4328640;33;20064;-79
2021/03/08 01:40:38;;;;;;;44.38;35.72;;;;;;;;;;4335618;33;20051;-79
2021/03/08 01:43:06;;;;;;;49.70;40.28;;;;;;;;;;4312112;33;20174;-78
2021/03/08 01:45:34;;;;;;;40.08;35.80;;;;;;;;;;4323740;33;20517;-79
2021/03/08 01:48:03;;;;;;;34.60;28.58;;;;;;;;;;4325308;33;20071;-79
2021/03/08 01:50:31;;;;;;;36.17;31.23;;;;;;;;;;4324633;33;20165;-80
2021/03/08 01:53:00;;;;;;;32.95;27.48;;;;;;;;;;4326922;33;20518;-77
2021/03/08 01:55:29;;;;;;;37.65;33.85;;;;;;;;;;4322763;33;20418;-78
2021/03/08 01:57:56;;;;;;;25.88;23.05;;;;;;;;;;4323922;33;20048;-78
2021/03/08 02:00:26;;;;;;;23.67;21.40;;;;;;;;;;4323189;33;20142;-78
2021/03/08 02:02:55;;;;;;;18.55;16.60;;;;;;;;;;4309811;33;20048;-78
2021/03/08 02:05:28;;;;;;;22.83;20.27;;;;;;;;;;4325657;33;20120;-78
2021/03/08 02:07:56;;;;;;;30.12;26.05;;;;;;;;;;4329416;33;22131;-79
2021/03/08 02:10:27;;;;;;;26.23;23.48;;;;;;;;;;4325208;33;20112;-79
2021/03/08 02:12:55;;;;;;;26.08;23.70;;;;;;;;;;4332639;33;20205;-79
2021/03/08 02:15:29;;;;;;;26.30;23.90;;;;;;;;;;4323566;33;20538;-77
2021/03/08 02:17:57;;;;;;;30.80;28.02;;;;;;;;;;4329726;33;20163;-79
2021/03/08 02:20:28;;;;;;;27.35;24.48;;;;;;;;;;4334610;33;20452;-79
2021/03/08 02:22:56;;;;;;;26.20;23.42;;;;;;;;;;4335709;33;20071;-78
2021/03/08 02:25:50;;;;;;;22.60;17.87;;;;;;;;;;4333144;33;21096;-79
2021/03/08 02:28:18;;;;;;;26.17;19.73;;;;;;;;;;4337240;33;20107;-77
2021/03/08 02:30:46;;;;;;;28.20;25.20;;;;;;;;;;4332772;33;20044;-79
2021/03/08 02:33:19;;;;;;;52.72;48.13;;;;;;;;;;4311149;33;20111;-78
2021/03/08 02:35:50;;;;;;;28.25;25.25;;;;;;;;;;4329960;33;20659;-78
2021/03/08 02:38:20;;;;;;;9.88;2.00;;;;;;;;;;4330759;33;20095;-79
2021/03/08 02:41:01;;;;;;;12.60;2.92;;;;;;;;;;4329666;33;20830;-80
2021/03/08 02:43:55;;;;;;;10.73;2.55;;;;;;;;;;4331199;33;20523;-79
2021/03/08 02:46:34;;;;;;;14.27;2.90;;;;;;;;;;4330508;33;20123;-79
2021/03/08 02:49:05;;;;;;;9.93;2.47;;;;;;;;;;4328826;33;20131;-80
2021/03/08 02:51:34;;;;;;;12.07;2.62;;;;;;;;;;4325610;33;20146;-79
2021/03/08 02:54:03;;;;;;;11.43;2.10;;;;;;;;;;4327185;33;20114;-78
2021/03/08 02:56:36;;;;;;;8.00;2.20;;;;;;;;;;4332621;33;20048;-80
2021/03/08 02:59:06;;;;;;;14.65;2.90;;;;;;;;;;4333953;33;20072;-78
2021/03/08 03:01:35;;;;;;;13.85;2.53;;;;;;;;;;4317611;33;20186;-79
2021/03/08 03:04:04;;;;;;;12.80;2.22;;;;;;;;;;4328582;33;20083;-80
2021/03/08 03:06:33;;;;;;;9.95;2.10;;;;;;;;;;4331731;33;20052;-77
2021/03/08 03:09:04;;;;;;;8.52;2.10;;;;;;;;;;4332159;33;20071;-77
2021/03/08 03:11:34;;;;;;;9.73;1.70;;;;;;;;;;4372445;27;20201;-96
2021/03/08 03:14:08;;;;;;;3.95;1.20;;;;;;;;;;4355510;32;20055;-95
2021/03/08 03:16:38;;;;;;;8.73;1.77;;;;;;;;;;4338152;32;20051;-96
2021/03/08 03:19:41;;;;;;;11.02;2.00;;;;;;;;;;4349615;32;20043;-95
2021/03/08 03:22:09;;;;;;;6.65;1.40;;;;;;;;;;4359451;32;20107;-96
2021/03/08 03:24:44;;;;;;;8.40;1.83;;;;;;;;;;4348674;33;20070;-96
2021/03/08 03:27:19;;;;;;;7.00;1.70;;;;;;;;;;4351406;32;20083;-96
2021/03/08 03:29:52;;;;;;;13.07;2.00;;;;;;;;;;4348190;32;20102;-95
2021/03/08 03:32:27;;;;;;;9.85;1.70;;;;;;;;;;4350345;32;20298;-95
2021/03/08 03:34:58;;;;;;;9.95;2.22;;;;;;;;;;4349294;32;20052;-96
2021/03/08 03:37:29;;;;;;;9.68;2.30;;;;;;;;;;4350459;32;20036;-96
2021/03/08 03:39:57;;;;;;;6.95;1.60;;;;;;;;;;4346777;32;20145;-93
2021/03/08 03:42:30;;;;;;;8.32;1.77;;;;;;;;;;4346096;33;20047;-95
2021/03/08 03:44:59;;;;;;;6.40;1.42;;;;;;;;;;4355516;32;20047;-96
2021/03/08 03:47:34;;;;;;;6.05;2.05;;;;;;;;;;4363066;32;20618;-96
2021/03/08 03:50:06;;;;;;;10.00;1.65;;;;;;;;;;4362096;32;20076;-96
2021/03/08 03:52:38;;;;;;;6.35;1.35;;;;;;;;;;4366221;32;20059;-96
2021/03/08 03:55:08;;;;;;;10.00;1.60;;;;;;;;;;4366020;32;20046;-96
2021/03/08 03:57:49;;;;;;;11.12;1.95;;;;;;;;;;4362906;32;20035;-95
2021/03/08 04:00:22;;;;;;;13.93;1.70;;;;;;;;;;4367101;32;20051;-96
2021/03/08 04:02:56;;;;;;;7.18;1.52;;;;;;;;;;4357258;32;20067;-95
2021/03/08 04:05:28;;;;;;;5.12;1.52;;;;;;;;;;4355785;32;20106;-96
2021/03/08 04:07:57;;;;;;;11.93;1.95;;;;;;;;;;4363461;32;20096;-95
2021/03/08 04:10:28;;;;;;;7.03;1.37;;;;;;;;;;4356424;32;20102;-94
2021/03/08 04:13:03;;;;;;;10.32;1.62;;;;;;;;;;4361403;32;20170;-96
2021/03/08 04:15:32;;;;;;;6.15;1.20;;;;;;;;;;4352699;32;20102;-95
2021/03/08 04:18:12;;;;;;;6.35;1.52;;;;;;;;;;4358462;32;20527;-96
2021/03/08 04:20:58;;;;;;;8.18;3.20;;;;;;;;;;4359807;32;20079;-95
2021/03/08 04:23:27;;;;;;;12.18;7.03;;;;;;;;;;4362023;32;20047;-96
2021/03/08 04:26:01;;;;;;;10.02;2.92;;;;;;;;;;4357902;32;20105;-94
2021/03/08 04:28:30;;;;;;;41.97;37.45;;;;;;;;;;4367642;32;20180;-96
2021/03/08 04:31:07;;;;;;;44.17;39.58;;;;;;;;;;4371268;32;20083;-96
2021/03/08 04:33:37;;;;;;;37.50;34.10;;;;;;;;;;4362154;32;20069;-95
2021/03/08 04:36:09;;;;;;;11.40;7.15;;;;;;;;;;4373879;32;20177;-96
2021/03/08 04:38:40;;;;;;;49.05;44.17;;;;;;;;;;4355916;32;20098;-95
2021/03/08 04:41:13;;;;;;;38.22;29.95;;;;;;;;;;4355069;32;20051;-95
2021/03/08 04:43:45;;;;;;;12.30;4.50;;;;;;;;;;4370310;32;20055;-96
2021/03/08 04:46:14;;;;;;;33.58;25.75;;;;;;;;;;4360975;32;20080;-94
2021/03/08 04:48:43;;;;;;;29.27;21.35;;;;;;;;;;4349473;32;20105;-95
2021/03/08 04:51:12;;;;;;;56.92;40.88;;;;;;;;;;4353767;32;20063;-95
2021/03/08 04:53:41;;;;;;;9.40;5.43;;;;;;;;;;4356071;32;20069;-96
2021/03/08 04:56:33;;;;;;;15.32;10.95;;;;;;;;;;4356665;32;20043;-94
2021/03/08 04:59:03;;;;;;;9.63;2.20;;;;;;;;;;4355538;32;20039;-94
2021/03/08 05:01:36;;;;;;;7.12;2.20;;;;;;;;;;4361181;32;20475;-96
2021/03/08 05:04:07;;;;;;;7.40;1.83;;;;;;;;;;4359360;32;20086;-96
2021/03/08 05:06:41;;;;;;;6.60;1.33;;;;;;;;;;4360631;32;20073;-96
2021/03/08 05:09:13;;;;;;;8.95;1.45;;;;;;;;;;4352631;32;20063;-96
2021/03/08 05:11:46;;;;;;;8.65;1.48;;;;;;;;;;4357347;32;20070;-96
2021/03/08 05:14:16;;;;;;;5.43;1.40;;;;;;;;;;4359331;32;20105;-95
2021/03/08 05:16:50;;;;;;;10.35;1.73;;;;;;;;;;4362873;32;20091;-95
2021/03/08 05:19:19;;;;;;;5.50;1.50;;;;;;;;;;4382966;32;20098;-96
2021/03/08 05:21:57;;;;;;;7.43;1.52;;;;;;;;;;4375775;32;20485;-96
2021/03/08 05:24:28;;;;;;;9.68;2.08;;;;;;;;;;4361839;32;20096;-96
2021/03/08 05:26:57;;;;;;;6.32;1.30;;;;;;;;;;4358363;32;20095;-96
2021/03/08 05:29:27;;;;;;;6.55;1.23;;;;;;;;;;4365247;32;20060;-96
2021/03/08 05:31:57;;;;;;;7.50;1.60;;;;;;;;;;4359142;32;20047;-96
2021/03/08 05:35:03;;;;;;;8.65;1.50;;;;;;;;;;4357960;32;20038;-96
2021/03/08 05:37:46;;;;;;;6.00;1.60;;;;;;;;;;4362466;32;20106;-96
2021/03/08 05:40:27;;;;;;;6.47;1.90;;;;;;;;;;4360823;32;20124;-96
2021/03/08 05:43:03;;;;;;;6.18;1.85;;;;;;;;;;4364183;32;20086;-96
2021/03/08 05:45:40;;;;;;;57.90;44.88;;;;;;;;;;4370335;32;20059;-96
2021/03/08 05:48:14;;;;;;;9.70;1.98;;;;;;;;;;4359833;32;20454;-96
2021/03/08 05:50:54;;;;;;;21.20;14.48;;;;;;;;;;4376092;32;20077;-96
2021/03/08 05:53:58;;;;;;;10.82;2.67;;;;;;;;;;4356554;32;20086;-96
2021/03/08 05:56:32;;;;;;;8.15;2.67;;;;;;;;;;4366024;32;20509;-96
2021/03/08 05:59:31;;;;;;;9.50;3.60;;;;;;;;;;4365332;32;20420;-95
2021/03/08 06:02:38;;;;;;;7.55;1.75;;;;;;;;;;4367498;32;20096;-95
2021/03/08 06:05:31;;;;;;;8.30;2.03;;;;;;;;;;4365919;32;20055;-95
2021/03/08 06:08:27;;;;;;;7.82;1.65;;;;;;;;;;4364790;32;20078;-95
2021/03/08 06:11:10;;;;;;;9.55;1.98;;;;;;;;;;4366930;32;20107;-96
2021/03/08 06:14:02;;;;;;;12.73;3.83;;;;;;;;;;4363994;32;20125;-95
2021/03/08 06:16:39;;;;;;;5.68;1.70;;;;;;;;;;4343830;32;20090;-96
2021/03/08 06:19:11;;;;;;;12.80;2.55;;;;;;;;;;4365219;32;20221;-96
2021/03/08 06:21:50;;;;;;;46.97;39.30;;;;;;;;;;4365919;32;20062;-96
2021/03/08 06:24:42;;;;;;;17.85;10.75;;;;;;;;;;4365179;32;20069;-96
2021/03/08 06:27:15;;;;;;;16.85;8.48;;;;;;;;;;4355678;32;20097;-94
2021/03/08 06:29:45;;;;;;;7.43;2.00;;;;;;;;;;4365138;32;20108;-96
2021/03/08 06:32:15;;;;;;;39.85;30.90;;;;;;;;;;4358658;32;20108;-96
2021/03/08 06:34:44;;;;;;;27.08;23.92;;;;;;;;;;4361714;32;20406;-96
2021/03/08 06:37:14;;;;;;;43.33;36.22;;;;;;;;;;4366675;32;20043;-96
2021/03/08 06:39:43;;;;;;;22.45;17.08;;;;;;;;;;4354464;32;20082;-95
2021/03/08 06:42:14;;;;;;;14.87;13.05;;;;;;;;;;4354172;32;20043;-94
2021/03/08 06:44:46;;;;;;;21.95;16.45;;;;;;;;;;4369184;32;20051;-96
2021/03/08 06:47:14;;;;;;;73.40;65.37;;;;;;;;;;4354251;32;20089;-94
2021/03/08 06:49:48;;;;;;;8.32;2.10;;;;;;;;;;4362923;32;20107;-96
2021/03/08 06:52:21;;;;;;;6.12;2.20;;;;;;;;;;4359601;32;20089;-95
2021/03/08 06:55:02;;;;;;;7.73;1.90;;;;;;;;;;4356011;32;20101;-96
2021/03/08 06:57:32;;;;;;;8.80;2.55;;;;;;;;;;4369010;32;20091;-96
2021/03/08 07:00:08;;;;;;;11.02;2.40;;;;;;;;;;4368943;32;20096;-96
2021/03/08 07:02:43;;;;;;;10.13;2.42;;;;;;;;;;4370400;32;20435;-95
2021/03/08 07:05:28;;;;;;;9.45;2.20;;;;;;;;;;4364942;32;20061;-95
2021/03/08 07:07:59;;;;;;;9.75;2.15;;;;;;;;;;4364044;32;20146;-96
2021/03/08 07:10:34;;;;;;;10.77;2.42;;;;;;;;;;4376705;32;20058;-95
2021/03/08 07:13:04;;;;;;;10.68;2.10;;;;;;;;;;4361199;32;20081;-95
2021/03/08 07:15:54;;;;;;;18.98;11.15;;;;;;;;;;4356223;32;20152;-95
2021/03/08 07:18:26;;;;;;;11.60;2.55;;;;;;;;;;4369133;32;20090;-96
2021/03/08 07:21:14;;;;;;;13.23;2.40;;;;;;;;;;4365431;32;20085;-96
2021/03/08 07:23:46;;;;;;;11.57;1.95;;;;;;;;;;4365638;32;20060;-95
2021/03/08 07:26:23;;;;;;;12.02;2.42;;;;;;;;;;4364184;32;20079;-96
2021/03/08 07:29:15;;;;;;;10.95;2.10;;;;;;;;;;4364518;32;20399;-96
2021/03/08 07:32:14;;;;;;;11.55;2.20;;;;;;;;;;4381561;32;20096;-96
2021/03/08 07:34:48;;;;;;;9.13;1.80;;;;;;;;;;4366791;32;20455;-96
2021/03/08 07:37:22;;;;;;;7.40;1.62;;;;;;;;;;4361469;32;20039;-96
2021/03/08 07:40:09;;;;;;;16.35;2.33;;;;;;;;;;4364846;32;20069;-95
2021/03/08 07:43:02;;;;;;;20.55;2.72;;;;;;;;;;4361228;32;20494;-96
2021/03/08 07:45:42;;;;;;;12.93;5.65;;;;;;;;;;4357827;32;20098;-96
2021/03/08 07:51:13;;;;;;;9.27;3.25;;;;;;;;;;4379567;32;20051;-96
2021/03/08 07:53:54;;;;;;;;;;;;;;;;;;;;;
2021/03/08 08:07:16;;;;;;;44.63;40.03;;;;;;;;;;4385613;32;20056;-96
2021/03/08 08:10:34;;;;;;;56.10;50.05;;;;;;;;;;4400948;32;20058;-95
2021/03/08 08:14:09;;;;;;;11.00;2.40;;;;;;;;;;4382218;32;20113;-96
2021/03/08 08:17:14;;;;;;;11.02;5.95;;;;;;;;;;4391022;27;20118;-79
2021/03/08 08:19:54;;;;;;;11.85;5.20;;;;;;;;;;4360584;32;20174;-79
2021/03/08 08:22:23;;;;;;;29.50;23.42;;;;;;;;;;4366107;32;20055;-79
2021/03/08 08:24:55;;;;;;;17.20;6.65;;;;;;;;;;4366630;32;20055;-78
2021/03/08 08:27:25;;;;;;;16.17;6.20;;;;;;;;;;4367547;32;20081;-80
2021/03/08 08:29:59;;;;;;;6.55;2.03;;;;;;;;;;4346015;32;20101;-80
2021/03/08 08:32:27;;;;;;;13.05;4.28;;;;;;;;;;4364926;32;20093;-79
2021/03/08 08:34:55;;;;;;;17.73;15.82;;;;;;;;;;4361443;32;20550;-80
2021/03/08 08:37:27;;;;;;;7.95;1.95;;;;;;;;;;4363877;32;20105;-81
2021/03/08 08:39:55;;;;;;;9.23;2.83;;;;;;;;;;4366197;32;20504;-77
2021/03/08 08:42:24;;;;;;;6.18;1.77;;;;;;;;;;4365688;32;20490;-78
2021/03/08 08:44:52;;;;;;;6.60;1.52;;;;;;;;;;4367312;32;20100;-78
2021/03/08 08:47:20;;;;;;;7.12;1.73;;;;;;;;;;4366614;32;20167;-78
2021/03/08 08:49:49;;;;;;;8.43;1.60;;;;;;;;;;4364303;32;20105;-77
2021/03/08 08:52:18;;;;;;;8.60;1.62;;;;;;;;;;4364623;32;20489;-77
2021/03/08 08:54:50;;;;;;;7.75;1.60;;;;;;;;;;4362860;32;20059;-78
2021/03/08 08:57:20;;;;;;;6.32;1.50;;;;;;;;;;4357715;32;20074;-78
2021/03/08 09:00:08;;;;;;;6.32;1.92;;;;;;;;;;4363408;32;20059;-79
2021/03/08 09:02:36;;;;;;;6.45;1.90;;;;;;;;;;4356183;32;20056;-79
2021/03/08 09:05:22;;;;;;;11.68;4.18;;;;;;;;;;4360462;32;20050;-79
2021/03/08 09:08:10;;;;;;;10.65;2.50;;;;;;;;;;4360518;32;20055;-79
2021/03/08 09:10:38;;;;;;;8.70;1.62;;;;;;;;;;4363510;32;20059;-78
2021/03/08 09:13:10;;;;;;;8.00;2.75;;;;;;;;;;4362275;32;20103;-79
2021/03/08 09:15:38;;;;;;;6.45;1.60;;;;;;;;;;4361985;32;20449;-80
2021/03/08 09:18:06;;;;;;;8.40;1.70;;;;;;;;;;4362182;32;20529;-79
2021/03/08 09:20:35;;;;;;;6.53;1.85;;;;;;;;;;4366390;32;20107;-79
2021/03/08 09:23:04;;;;;;;7.93;2.95;;;;;;;;;;4361690;32;20044;-80
2021/03/08 09:25:33;;;;;;;4.20;1.60;;;;;;;;;;4348519;32;20134;-78
2021/03/08 09:28:01;;;;;;;8.80;4.43;;;;;;;;;;4364130;32;20063;-79
2021/03/08 09:30:39;;;;;;;6.55;4.25;;;;;;;;;;4362708;32;20365;-80
2021/03/08 09:33:14;;;;;;;3.78;1.15;;;;;;;;;;4363584;32;20110;-78
2021/03/08 09:35:44;;;;;;;10.38;6.00;;;;;;;;;;4365597;32;20412;-80
2021/03/08 09:38:19;;;;;;;10.50;2.92;;;;;;;;;;4367670;32;20055;-78
2021/03/08 09:40:49;;;;;;;5.60;4.90;;;;;;;;;;4367802;32;20089;-80
2021/03/08 09:43:31;;;;;;;4.78;2.67;;;;;;;;;;4365449;32;20472;-78
2021/03/08 09:46:02;;;;;;;3.83;1.25;;;;;;;;;;4368733;32;20062;-80
2021/03/08 09:48:32;;;;;;;5.32;1.12;;;;;;;;;;4367738;32;20454;-78
2021/03/08 09:51:05;;;;;;;3.47;1.00;;;;;;;;;;4365008;32;20557;-79
2021/03/08 09:53:37;;;;;;;8.80;6.30;;;;;;;;;;4361386;32;20108;-78
2021/03/08 09:56:07;;;;;;;11.38;10.27;;;;;;;;;;4365426;32;20086;-78
2021/03/08 09:58:35;;;;;;;11.48;2.20;;;;;;;;;;4367500;32;20119;-78
2021/03/08 10:01:12;;;;;;;8.85;2.97;;;;;;;;;;4350745;32;20067;-78
2021/03/08 10:03:40;;;;;;;9.05;7.90;;;;;;;;;;4361219;32;20106;-80
2021/03/08 10:06:09;;;;;;;11.35;10.32;;;;;;;;;;4362088;32;20110;-80
2021/03/08 10:08:36;;;;;;;5.45;1.75;;;;;;;;;;4366019;32;20224;-79
2021/03/08 10:11:05;;;;;;;9.10;8.07;;;;;;;;;;4358640;32;20113;-80
2021/03/08 10:13:35;;;;;;;8.55;7.85;;;;;;;;;;4357616;32;20508;-79
2021/03/08 10:16:04;;;;;;;6.22;5.70;;;;;;;;;;4362614;32;20692;-79
2021/03/08 10:18:33;;;;;;;5.95;5.45;;;;;;;;;;4369111;32;20112;-79
2021/03/08 10:21:03;;;;;;;6.18;5.62;;;;;;;;;;4364116;32;20109;-80
2021/03/08 10:23:32;;;;;;;5.62;4.80;;;;;;;;;;4357636;32;20071;-77
2021/03/08 10:26:04;;;;;;;4.43;2.70;;;;;;;;;;4364927;32;20052;-79
2021/03/08 10:28:38;;;;;;;7.50;6.90;;;;;;;;;;4369413;32;20066;-78
2021/03/08 10:31:07;;;;;;;8.15;7.35;;;;;;;;;;4368429;32;20067;-78
2021/03/08 10:33:35;;;;;;;3.97;1.35;;;;;;;;;;4359324;32;20185;-79
2021/03/08 10:36:03;;;;;;;3.62;1.08;;;;;;;;;;4364073;32;20044;-78
2021/03/08 10:38:32;;;;;;;3.35;1.00;;;;;;;;;;4368056;32;20453;-77
2021/03/08 10:41:03;;;;;;;3.67;0.80;;;;;;;;;;4364504;32;20122;-78
2021/03/08 10:43:33;;;;;;;2.33;1.12;;;;;;;;;;4361093;32;20122;-80
2021/03/08 10:46:02;;;;;;;4.87;1.30;;;;;;;;;;4365292;32;20047;-79
2021/03/08 10:48:30;;;;;;;2.58;0.90;;;;;;;;;;4362974;32;20556;-79
2021/03/08 10:50:59;;;;;;;5.03;1.10;;;;;;;;;;4361324;32;20469;-79
2021/03/08 10:54:02;;;;;;;3.60;0.80;;;;;;;;;;4362647;32;20079;-81
2021/03/08 10:56:34;;;;;;;3.53;1.00;;;;;;;;;;4355453;32;20086;-79
2021/03/08 10:59:02;;;;;;;4.87;1.10;;;;;;;;;;4361829;32;21186;-80
2021/03/08 11:01:31;;;;;;;1.92;0.75;;;;;;;;;;4361724;32;20186;-78
2021/03/08 11:04:02;;;;;;;4.57;1.20;;;;;;;;;;4361886;32;20064;-78
2021/03/08 11:06:30;;;;;;;1.98;0.98;;;;;;;;;;4352442;32;20066;-80
2021/03/08 11:08:59;;;;;;;3.75;1.00;;;;;;;;;;4362280;32;20063;-78
2021/03/08 11:11:29;;;;;;;1.70;0.80;;;;;;;;;;4347077;32;20051;-78
2021/03/08 11:13:58;;;;;;;1.98;0.80;;;;;;;;;;4362147;32;20048;-81
2021/03/08 11:16:28;;;;;;;3.85;1.10;;;;;;;;;;4362376;32;20487;-78
2021/03/08 11:19:13;;;;;;;3.90;0.90;;;;;;;;;;4365573;32;20081;-80
2021/03/08 11:21:42;;;;;;;3.95;0.70;;;;;;;;;;4363275;32;20067;-78
2021/03/08 11:24:19;;;;;;;2.28;0.90;;;;;;;;;;4364909;32;20571;-80
2021/03/08 11:27:06;;;;;;;3.83;1.10;;;;;;;;;;4363973;32;20055;-79
2021/03/08 11:29:34;;;;;;;6.40;1.05;;;;;;;;;;4367776;32;20063;-80
2021/03/08 11:32:03;;;;;;;3.70;0.90;;;;;;;;;;4364895;32;20118;-80
2021/03/08 11:34:40;;;;;;;2.35;0.82;;;;;;;;;;4364436;32;20128;-78
2021/03/08 11:37:10;;;;;;;2.70;1.10;;;;;;;;;;4362632;32;20100;-79
2021/03/08 11:39:39;;;;;;;2.10;1.15;;;;;;;;;;4355359;32;20044;-78
2021/03/08 11:42:07;;;;;;;4.20;0.77;;;;;;;;;;4364708;32;20117;-79
2021/03/08 11:44:36;;;;;;;2.10;1.00;;;;;;;;;;4360819;32;20098;-80
2021/03/08 11:47:05;;;;;;;4.00;0.90;;;;;;;;;;4364834;32;20059;-80
2021/03/08 11:49:34;;;;;;;2.80;1.00;;;;;;;;;;4367241;32;20401;-80
2021/03/08 11:52:04;;;;;;;3.60;1.25;;;;;;;;;;4364719;32;20239;-81
2021/03/08 11:54:32;;;;;;;5.00;0.90;;;;;;;;;;4365132;32;20397;-80
2021/03/08 11:57:01;;;;;;;6.87;1.17;;;;;;;;;;4367315;32;20097;-79
2021/03/08 11:59:30;;;;;;;5.72;1.45;;;;;;;;;;4357690;32;20112;-80
2021/03/08 12:01:58;;;;;;;6.37;1.10;;;;;;;;;;4362765;32;20101;-79
2021/03/08 12:04:26;;;;;;;1.62;0.90;;;;;;;;;;4365027;32;20055;-81
2021/03/08 12:06:54;;;;;;;1.60;0.80;;;;;;;;;;4365256;32;20474;-80
2021/03/08 12:09:22;;;;;;;3.35;1.00;;;;;;;;;;4349048;32;20148;-80
2021/03/08 12:11:50;;;;;;;2.67;0.60;;;;;;;;;;4363500;32;20055;-79
2021/03/08 12:14:18;;;;;;;3.00;0.80;;;;;;;;;;4366264;32;20093;-79
2021/03/08 12:16:46;;;;;;;2.30;0.50;;;;;;;;;;4364782;32;20077;-80
2021/03/08 12:19:16;;;;;;;3.67;0.93;;;;;;;;;;4363642;32;20417;-81
2021/03/08 12:21:48;;;;;;;5.22;1.02;;;;;;;;;;4362752;32;20585;-80
2021/03/08 12:24:16;;;;;;;4.75;1.10;;;;;;;;;;4361649;32;20438;-77
2021/03/08 12:26:44;;;;;;;4.47;1.58;;;;;;;;;;4364482;32;20077;-77
2021/03/08 12:29:12;;;;;;;4.30;1.20;;;;;;;;;;4366428;32;20063;-81
2021/03/08 12:31:40;;;;;;;4.37;1.20;;;;;;;;;;4357399;32;20081;-79
2021/03/08 12:34:08;;;;;;;4.18;1.10;;;;;;;;;;4350534;32;20606;-79
2021/03/08 12:36:36;;;;;;;3.30;1.10;;;;;;;;;;4348094;32;20098;-78
2021/03/08 12:39:05;;;;;;;3.40;0.93;;;;;;;;;;4361153;32;20094;-82
2021/03/08 12:41:35;;;;;;;4.00;1.00;;;;;;;;;;4363295;32;20101;-79
2021/03/08 12:44:03;;;;;;;6.35;1.20;;;;;;;;;;4365319;32;20209;-78
2021/03/08 12:46:31;;;;;;;6.03;1.08;;;;;;;;;;4359838;32;20084;-78
2021/03/08 12:48:58;;;;;;;4.22;1.00;;;;;;;;;;4359091;32;20067;-78
2021/03/08 12:51:26;;;;;;;3.35;1.20;;;;;;;;;;4362706;32;20097;-78
2021/03/08 12:53:55;;;;;;;3.45;1.00;;;;;;;;;;4359163;32;20130;-79
2021/03/08 12:56:22;;;;;;;5.47;1.27;;;;;;;;;;4366748;32;20117;-80
2021/03/08 12:58:50;;;;;;;3.65;1.00;;;;;;;;;;4359009;32;20119;-77
2021/03/08 13:01:19;;;;;;;4.53;1.10;;;;;;;;;;4361289;32;20473;-79
2021/03/08 13:03:47;;;;;;;5.32;1.30;;;;;;;;;;4363786;32;20079;-79
2021/03/08 13:06:17;;;;;;;4.43;1.30;;;;;;;;;;4365687;32;20413;-78
2021/03/08 13:09:03;;;;;;;4.60;1.20;;;;;;;;;;4365218;32;20130;-79
2021/03/08 13:11:31;;;;;;;5.80;1.30;;;;;;;;;;4363888;32;20079;-80
2021/03/08 13:13:59;;;;;;;3.92;1.20;;;;;;;;;;4365427;32;20051;-80
2021/03/08 13:16:28;;;;;;;3.78;1.05;;;;;;;;;;4360297;32;20066;-79
2021/03/08 13:18:59;;;;;;;4.20;1.40;;;;;;;;;;4362895;32;20051;-81
2021/03/08 13:21:29;;;;;;;6.43;1.20;;;;;;;;;;4369153;32;20055;-79
2021/03/08 13:23:57;;;;;;;5.78;1.00;;;;;;;;;;4367224;32;20110;-78
2021/03/08 13:26:25;;;;;;;4.55;1.20;;;;;;;;;;4358675;32;20110;-80
2021/03/08 13:28:54;;;;;;;3.97;1.30;;;;;;;;;;4360763;32;20101;-81
2021/03/08 13:31:23;;;;;;;4.87;1.23;;;;;;;;;;4361611;32;20182;-80
2021/03/08 13:33:51;;;;;;;5.62;1.48;;;;;;;;;;4365582;32;20539;-78
2021/03/08 13:36:19;;;;;;;3.58;1.00;;;;;;;;;;4362190;32;20074;-81
2021/03/08 13:39:05;;;;;;;6.20;0.90;;;;;;;;;;4360374;32;20114;-79
2021/03/08 13:41:33;;;;;;;4.45;1.10;;;;;;;;;;4362541;32;20313;-78
2021/03/08 13:44:01;;;;;;;11.73;1.17;;;;;;;;;;4362889;32;20540;-79
2021/03/08 13:46:29;;;;;;;2.50;1.00;;;;;;;;;;4357428;32;20160;-79
2021/03/08 13:48:57;;;;;;;3.85;1.17;;;;;;;;;;4363568;32;20481;-82
2021/03/08 13:51:26;;;;;;;8.10;1.65;;;;;;;;;;4363228;32;20119;-79
2021/03/08 13:54:00;;;;;;;3.75;1.30;;;;;;;;;;4361511;32;20386;-78
2021/03/08 13:56:28;;;;;;;4.05;1.73;;;;;;;;;;4360789;32;20428;-80
2021/03/08 13:58:56;;;;;;;3.83;1.30;;;;;;;;;;4361329;32;20102;-78
2021/03/08 14:01:23;;;;;;;7.18;1.23;;;;;;;;;;4364173;32;20070;-77
2021/03/08 14:03:54;;;;;;;4.90;0.95;;;;;;;;;;4354100;32;20086;-79
2021/03/08 14:06:22;;;;;;;7.12;1.20;;;;;;;;;;4364237;32;20051;-78
2021/03/08 14:08:49;;;;;;;4.72;1.23;;;;;;;;;;4363940;32;20449;-79
2021/03/08 14:11:18;;;;;;;3.65;1.10;;;;;;;;;;4363648;32;20463;-78
2021/03/08 14:13:45;;;;;;;3.83;1.48;;;;;;;;;;4365108;32;20097;-78
2021/03/08 14:16:13;;;;;;;7.60;1.30;;;;;;;;;;4350570;32;20059;-78
2021/03/08 14:18:42;;;;;;;6.70;1.65;;;;;;;;;;4354151;32;20123;-79
2021/03/08 14:21:10;;;;;;;3.85;1.02;;;;;;;;;;4370405;32;20831;-78
2021/03/08 14:23:38;;;;;;;8.93;1.20;;;;;;;;;;4363910;32;20056;-78
2021/03/08 14:26:06;;;;;;;4.53;1.15;;;;;;;;;;4365382;32;20110;-77
2021/03/08 14:28:48;;;;;;;5.28;1.35;;;;;;;;;;4368982;32;20081;-78
2021/03/08 14:31:16;;;;;;;10.45;1.48;;;;;;;;;;4362276;32;20047;-78
2021/03/08 14:33:44;;;;;;;7.12;1.12;;;;;;;;;;4364840;32;20062;-78
2021/03/08 14:36:12;;;;;;;10.57;1.80;;;;;;;;;;4365300;32;20072;-77
2021/03/08 14:38:41;;;;;;;7.43;1.80;;;;;;;;;;4362866;32;20120;-78
2021/03/08 14:41:09;;;;;;;3.70;1.10;;;;;;;;;;4368862;32;20157;-78
2021/03/08 14:43:36;;;;;;;34.60;3.75;;;;;;;;;;4366281;32;20093;-79
2021/03/08 14:46:08;;;;;;;3.97;1.67;;;;;;;;;;4368131;32;20150;-77
2021/03/08 14:48:42;;;;;;;5.82;1.35;;;;;;;;;;4365963;32;20055;-78
2021/03/08 14:51:16;;;;;;;5.45;1.10;;;;;;;;;;4357129;32;20115;-76
2021/03/08 14:53:44;;;;;;;4.75;1.25;;;;;;;;;;4364272;32;20113;-76
2021/03/08 14:56:12;;;;;;;5.18;1.40;;;;;;;;;;4367006;32;20175;-76
2021/03/08 14:58:40;;;;;;;4.50;1.02;;;;;;;;;;4367233;32;20180;-77
2021/03/08 15:01:08;;;;;;;4.05;1.05;;;;;;;;;;4365620;32;20553;-78
2021/03/08 15:03:36;;;;;;;5.43;1.17;;;;;;;;;;4365285;32;20047;-77
2021/03/08 15:06:06;;;;;;;4.82;1.17;;;;;;;;;;4365655;32;20082;-78
2021/03/08 15:08:53;;;;;;;4.28;1.40;;;;;;;;;;4366520;32;20168;-78
2021/03/08 15:11:22;;;;;;;6.53;1.17;;;;;;;;;;4364349;32;20419;-78
2021/03/08 15:13:50;;;;;;;5.05;1.40;;;;;;;;;;4365090;32;20051;-79
2021/03/08 15:16:18;;;;;;;4.87;1.02;;;;;;;;;;4357576;32;20079;-79
2021/03/08 15:18:46;;;;;;;6.65;1.37;;;;;;;;;;4351833;32;20500;-77
2021/03/08 15:21:14;;;;;;;7.95;1.40;;;;;;;;;;4369537;32;20554;-77